sensor_id;sensor_type;location;lat;lon;timestamp;P1;durP1;ratioP1;P2;durP2;ratioP2
18304;SDS011;9278;52.156;21.048;2023-04-24T00:00:57;14.45;;;7.78;;
18304;SDS011;9278;52.156;21.048;2023-04-24T00:03:27;15.20;;;7.93;;
18304;SDS011;9278;52.156;21.048;2023-04-24T00:05:56;15.05;;;8.00;;
18304;SDS011;9278;52.156;21.048;2023-04-24T00:08:25;14.88;;;7.88;;
18304;SDS011;9278;52.156;21.048;2023-04-24T00:10:55;16.45;;;8.77;;
18304;SDS011;9278;52.156;21.048;2023-04-24T00:13:23;12.50;;;7.80;;
18304;SDS011;9278;52.156;21.048;2023-04-24T00:15:51;12.88;;;7.93;;
18304;SDS011;9278;52.156;21.048;2023-04-24T00:18:19;13.13;;;7.93;;
18304;SDS011;9278;52.156;21.048;2023-04-24T00:20:47;15.57;;;8.52;;
18304;SDS011;9278;52.156;21.048;2023-04-24T00:23:16;15.95;;;8.13;;
18304;SDS011;9278;52.156;21.048;2023-04-24T00:25:44;17.58;;;8.82;;
18304;SDS011;9278;52.156;21.048;2023-04-24T00:28:13;13.57;;;7.82;;
18304;SDS011;9278;52.156;21.048;2023-04-24T00:30:41;13.85;;;8.43;;
18304;SDS011;9278;52.156;21.048;2023-04-24T00:33:10;14.50;;;8.43;;
18304;SDS011;9278;52.156;21.048;2023-04-24T00:35:38;16.15;;;8.38;;
18304;SDS011;9278;52.156;21.048;2023-04-24T00:38:06;16.77;;;8.90;;
18304;SDS011;9278;52.156;21.048;2023-04-24T00:40:34;14.05;;;8.10;;
18304;SDS011;9278;52.156;21.048;2023-04-24T00:43:03;15.15;;;8.23;;
18304;SDS011;9278;52.156;21.048;2023-04-24T00:45:35;14.70;;;8.13;;
18304;SDS011;9278;52.156;21.048;2023-04-24T00:48:03;18.92;;;8.82;;
18304;SDS011;9278;52.156;21.048;2023-04-24T00:50:32;15.02;;;8.60;;
18304;SDS011;9278;52.156;21.048;2023-04-24T00:53:00;15.50;;;8.80;;
18304;SDS011;9278;52.156;21.048;2023-04-24T00:55:28;16.17;;;9.40;;
18304;SDS011;9278;52.156;21.048;2023-04-24T00:57:58;16.70;;;9.18;;
18304;SDS011;9278;52.156;21.048;2023-04-24T01:00:27;16.00;;;8.57;;
18304;SDS011;9278;52.156;21.048;2023-04-24T01:02:56;21.50;;;9.45;;
18304;SDS011;9278;52.156;21.048;2023-04-24T01:05:27;15.40;;;8.68;;
18304;SDS011;9278;52.156;21.048;2023-04-24T01:07:55;13.80;;;8.45;;
18304;SDS011;9278;52.156;21.048;2023-04-24T01:10:24;14.07;;;8.63;;
18304;SDS011;9278;52.156;21.048;2023-04-24T01:12:54;19.83;;;8.65;;
18304;SDS011;9278;52.156;21.048;2023-04-24T01:15:23;15.98;;;8.63;;
18304;SDS011;9278;52.156;21.048;2023-04-24T01:17:51;16.75;;;8.93;;
18304;SDS011;9278;52.156;21.048;2023-04-24T01:20:21;18.05;;;8.27;;
18304;SDS011;9278;52.156;21.048;2023-04-24T01:22:54;16.65;;;8.70;;
18304;SDS011;9278;52.156;21.048;2023-04-24T01:25:24;17.92;;;8.90;;
18304;SDS011;9278;52.156;21.048;2023-04-24T01:27:56;15.45;;;9.10;;
18304;SDS011;9278;52.156;21.048;2023-04-24T01:30:24;16.88;;;8.38;;
18304;SDS011;9278;52.156;21.048;2023-04-24T01:32:53;18.85;;;9.68;;
18304;SDS011;9278;52.156;21.048;2023-04-24T01:35:21;13.27;;;7.90;;
18304;SDS011;9278;52.156;21.048;2023-04-24T01:37:50;18.67;;;8.32;;
18304;SDS011;9278;52.156;21.048;2023-04-24T01:40:19;17.60;;;8.75;;
18304;SDS011;9278;52.156;21.048;2023-04-24T01:42:51;14.50;;;8.50;;
18304;SDS011;9278;52.156;21.048;2023-04-24T01:45:19;15.30;;;9.65;;
18304;SDS011;9278;52.156;21.048;2023-04-24T01:47:48;15.70;;;9.10;;
18304;SDS011;9278;52.156;21.048;2023-04-24T01:50:17;18.75;;;9.38;;
18304;SDS011;9278;52.156;21.048;2023-04-24T01:52:46;14.80;;;8.57;;
18304;SDS011;9278;52.156;21.048;2023-04-24T01:55:14;16.80;;;9.48;;
18304;SDS011;9278;52.156;21.048;2023-04-24T01:57:45;18.40;;;9.20;;
18304;SDS011;9278;52.156;21.048;2023-04-24T02:00:13;16.92;;;9.32;;
18304;SDS011;9278;52.156;21.048;2023-04-24T02:02:44;18.25;;;8.80;;
18304;SDS011;9278;52.156;21.048;2023-04-24T02:05:14;15.73;;;9.27;;
18304;SDS011;9278;52.156;21.048;2023-04-24T02:07:42;16.55;;;8.50;;
18304;SDS011;9278;52.156;21.048;2023-04-24T02:10:10;15.90;;;9.70;;
18304;SDS011;9278;52.156;21.048;2023-04-24T02:12:41;20.50;;;9.68;;
18304;SDS011;9278;52.156;21.048;2023-04-24T02:15:11;18.00;;;9.23;;
18304;SDS011;9278;52.156;21.048;2023-04-24T02:17:39;19.02;;;9.70;;
18304;SDS011;9278;52.156;21.048;2023-04-24T02:20:08;17.20;;;9.23;;
18304;SDS011;9278;52.156;21.048;2023-04-24T02:22:37;21.27;;;9.18;;
18304;SDS011;9278;52.156;21.048;2023-04-24T02:25:06;15.50;;;9.40;;
18304;SDS011;9278;52.156;21.048;2023-04-24T02:27:34;20.58;;;9.40;;
18304;SDS011;9278;52.156;21.048;2023-04-24T02:30:05;15.90;;;9.52;;
18304;SDS011;9278;52.156;21.048;2023-04-24T02:32:36;19.83;;;9.80;;
18304;SDS011;9278;52.156;21.048;2023-04-24T02:35:05;18.20;;;9.40;;
18304;SDS011;9278;52.156;21.048;2023-04-24T02:37:34;19.70;;;9.20;;
18304;SDS011;9278;52.156;21.048;2023-04-24T02:40:03;16.75;;;9.25;;
18304;SDS011;9278;52.156;21.048;2023-04-24T02:42:32;18.15;;;9.93;;
18304;SDS011;9278;52.156;21.048;2023-04-24T02:45:01;18.30;;;9.90;;
18304;SDS011;9278;52.156;21.048;2023-04-24T02:47:29;16.58;;;9.35;;
18304;SDS011;9278;52.156;21.048;2023-04-24T02:50:00;21.15;;;9.18;;
18304;SDS011;9278;52.156;21.048;2023-04-24T02:52:29;20.63;;;9.52;;
18304;SDS011;9278;52.156;21.048;2023-04-24T02:54:57;15.40;;;9.65;;
18304;SDS011;9278;52.156;21.048;2023-04-24T02:57:25;18.50;;;9.40;;
18304;SDS011;9278;52.156;21.048;2023-04-24T02:59:53;18.83;;;10.13;;
18304;SDS011;9278;52.156;21.048;2023-04-24T03:02:22;20.65;;;10.48;;
18304;SDS011;9278;52.156;21.048;2023-04-24T03:04:50;19.40;;;10.07;;
18304;SDS011;9278;52.156;21.048;2023-04-24T03:07:20;18.05;;;10.07;;
18304;SDS011;9278;52.156;21.048;2023-04-24T03:09:50;18.00;;;10.52;;
18304;SDS011;9278;52.156;21.048;2023-04-24T03:12:18;21.83;;;10.88;;
18304;SDS011;9278;52.156;21.048;2023-04-24T03:14:46;21.00;;;9.40;;
18304;SDS011;9278;52.156;21.048;2023-04-24T03:17:15;19.00;;;10.60;;
18304;SDS011;9278;52.156;21.048;2023-04-24T03:19:43;20.48;;;10.70;;
18304;SDS011;9278;52.156;21.048;2023-04-24T03:22:12;17.45;;;10.35;;
18304;SDS011;9278;52.156;21.048;2023-04-24T03:24:42;21.92;;;10.52;;
18304;SDS011;9278;52.156;21.048;2023-04-24T03:27:13;19.60;;;11.10;;
18304;SDS011;9278;52.156;21.048;2023-04-24T03:30:03;21.73;;;10.57;;
18304;SDS011;9278;52.156;21.048;2023-04-24T03:32:42;21.25;;;10.93;;
18304;SDS011;9278;52.156;21.048;2023-04-24T03:35:13;18.95;;;10.50;;
18304;SDS011;9278;52.156;21.048;2023-04-24T03:37:42;21.67;;;10.55;;
18304;SDS011;9278;52.156;21.048;2023-04-24T03:40:29;28.65;;;11.32;;
18304;SDS011;9278;52.156;21.048;2023-04-24T03:43:02;22.08;;;10.57;;
18304;SDS011;9278;52.156;21.048;2023-04-24T03:45:30;18.52;;;10.63;;
18304;SDS011;9278;52.156;21.048;2023-04-24T03:47:58;19.60;;;10.18;;
18304;SDS011;9278;52.156;21.048;2023-04-24T03:50:28;26.20;;;10.48;;
18304;SDS011;9278;52.156;21.048;2023-04-24T03:52:57;20.65;;;10.48;;
18304;SDS011;9278;52.156;21.048;2023-04-24T03:55:36;19.25;;;10.50;;
18304;SDS011;9278;52.156;21.048;2023-04-24T03:58:05;16.17;;;10.23;;
18304;SDS011;9278;52.156;21.048;2023-04-24T04:00:33;19.67;;;10.57;;
18304;SDS011;9278;52.156;21.048;2023-04-24T04:03:21;23.10;;;10.27;;
18304;SDS011;9278;52.156;21.048;2023-04-24T04:05:50;21.45;;;11.02;;
18304;SDS011;9278;52.156;21.048;2023-04-24T04:08:19;19.92;;;11.15;;
18304;SDS011;9278;52.156;21.048;2023-04-24T04:10:49;20.05;;;10.43;;
18304;SDS011;9278;52.156;21.048;2023-04-24T04:13:17;17.55;;;9.52;;
18304;SDS011;9278;52.156;21.048;2023-04-24T04:15:45;17.83;;;10.10;;
18304;SDS011;9278;52.156;21.048;2023-04-24T04:18:14;17.58;;;9.45;;
18304;SDS011;9278;52.156;21.048;2023-04-24T04:20:43;16.38;;;9.85;;
18304;SDS011;9278;52.156;21.048;2023-04-24T04:23:13;18.63;;;10.57;;
18304;SDS011;9278;52.156;21.048;2023-04-24T04:26:06;16.38;;;9.93;;
18304;SDS011;9278;52.156;21.048;2023-04-24T04:28:51;19.13;;;10.07;;
18304;SDS011;9278;52.156;21.048;2023-04-24T04:31:20;17.98;;;10.45;;
18304;SDS011;9278;52.156;21.048;2023-04-24T04:33:49;18.45;;;9.75;;
18304;SDS011;9278;52.156;21.048;2023-04-24T04:36:18;20.90;;;10.20;;
18304;SDS011;9278;52.156;21.048;2023-04-24T04:38:51;17.45;;;10.10;;
18304;SDS011;9278;52.156;21.048;2023-04-24T04:41:48;17.15;;;9.48;;
18304;SDS011;9278;52.156;21.048;2023-04-24T04:44:19;15.20;;;9.60;;
18304;SDS011;9278;52.156;21.048;2023-04-24T04:46:48;16.63;;;9.30;;
18304;SDS011;9278;52.156;21.048;2023-04-24T04:49:28;15.90;;;9.13;;
18304;SDS011;9278;52.156;21.048;2023-04-24T04:51:58;16.08;;;9.48;;
18304;SDS011;9278;52.156;21.048;2023-04-24T04:54:27;22.73;;;9.65;;
18304;SDS011;9278;52.156;21.048;2023-04-24T04:56:57;18.67;;;9.15;;
18304;SDS011;9278;52.156;21.048;2023-04-24T04:59:29;16.70;;;10.30;;
18304;SDS011;9278;52.156;21.048;2023-04-24T05:02:03;19.42;;;10.20;;
18304;SDS011;9278;52.156;21.048;2023-04-24T05:04:32;23.23;;;10.63;;
18304;SDS011;9278;52.156;21.048;2023-04-24T05:07:01;16.10;;;9.20;;
18304;SDS011;9278;52.156;21.048;2023-04-24T05:09:32;16.13;;;9.50;;
18304;SDS011;9278;52.156;21.048;2023-04-24T05:12:04;20.00;;;9.85;;
18304;SDS011;9278;52.156;21.048;2023-04-24T05:14:41;15.93;;;9.48;;
18304;SDS011;9278;52.156;21.048;2023-04-24T05:17:11;18.40;;;9.73;;
18304;SDS011;9278;52.156;21.048;2023-04-24T05:19:40;16.70;;;10.15;;
18304;SDS011;9278;52.156;21.048;2023-04-24T05:22:09;19.45;;;10.05;;
18304;SDS011;9278;52.156;21.048;2023-04-24T05:24:46;19.05;;;9.70;;
18304;SDS011;9278;52.156;21.048;2023-04-24T05:27:38;18.58;;;10.38;;
18304;SDS011;9278;52.156;21.048;2023-04-24T05:30:12;19.08;;;10.15;;
18304;SDS011;9278;52.156;21.048;2023-04-24T05:32:41;16.90;;;9.30;;
18304;SDS011;9278;52.156;21.048;2023-04-24T05:35:12;18.88;;;9.48;;
18304;SDS011;9278;52.156;21.048;2023-04-24T05:37:40;20.75;;;9.73;;
18304;SDS011;9278;52.156;21.048;2023-04-24T05:40:09;18.00;;;9.80;;
18304;SDS011;9278;52.156;21.048;2023-04-24T05:42:39;20.02;;;10.13;;
18304;SDS011;9278;52.156;21.048;2023-04-24T05:45:08;18.20;;;9.70;;
18304;SDS011;9278;52.156;21.048;2023-04-24T05:47:41;23.23;;;9.98;;
18304;SDS011;9278;52.156;21.048;2023-04-24T05:50:17;19.48;;;10.68;;
18304;SDS011;9278;52.156;21.048;2023-04-24T05:52:47;17.63;;;10.43;;
18304;SDS011;9278;52.156;21.048;2023-04-24T05:55:24;20.02;;;10.13;;
18304;SDS011;9278;52.156;21.048;2023-04-24T05:57:54;22.30;;;10.85;;
18304;SDS011;9278;52.156;21.048;2023-04-24T06:00:24;22.83;;;10.30;;
18304;SDS011;9278;52.156;21.048;2023-04-24T06:03:00;21.15;;;10.50;;
18304;SDS011;9278;52.156;21.048;2023-04-24T06:05:31;22.77;;;10.52;;
18304;SDS011;9278;52.156;21.048;2023-04-24T06:08:01;18.30;;;10.27;;
18304;SDS011;9278;52.156;21.048;2023-04-24T06:10:34;19.33;;;10.07;;
18304;SDS011;9278;52.156;21.048;2023-04-24T06:13:06;17.52;;;9.38;;
18304;SDS011;9278;52.156;21.048;2023-04-24T06:15:37;15.80;;;9.95;;
18304;SDS011;9278;52.156;21.048;2023-04-24T06:18:08;20.58;;;10.05;;
18304;SDS011;9278;52.156;21.048;2023-04-24T06:20:38;17.95;;;10.07;;
18304;SDS011;9278;52.156;21.048;2023-04-24T06:23:08;16.00;;;9.75;;
18304;SDS011;9278;52.156;21.048;2023-04-24T06:25:36;19.98;;;9.98;;
18304;SDS011;9278;52.156;21.048;2023-04-24T06:28:06;15.57;;;9.38;;
18304;SDS011;9278;52.156;21.048;2023-04-24T06:30:35;18.90;;;9.27;;
18304;SDS011;9278;52.156;21.048;2023-04-24T06:33:03;17.88;;;9.57;;
18304;SDS011;9278;52.156;21.048;2023-04-24T06:35:46;25.13;;;9.50;;
18304;SDS011;9278;52.156;21.048;2023-04-24T06:38:14;14.40;;;9.70;;
18304;SDS011;9278;52.156;21.048;2023-04-24T06:40:43;22.60;;;9.68;;
18304;SDS011;9278;52.156;21.048;2023-04-24T06:43:12;19.20;;;10.05;;
18304;SDS011;9278;52.156;21.048;2023-04-24T06:45:41;22.30;;;10.20;;
18304;SDS011;9278;52.156;21.048;2023-04-24T06:48:10;16.98;;;9.57;;
18304;SDS011;9278;52.156;21.048;2023-04-24T06:50:38;21.88;;;9.98;;
18304;SDS011;9278;52.156;21.048;2023-04-24T06:53:07;19.35;;;10.18;;
18304;SDS011;9278;52.156;21.048;2023-04-24T06:55:37;17.20;;;9.98;;
18304;SDS011;9278;52.156;21.048;2023-04-24T06:58:05;15.18;;;9.88;;
18304;SDS011;9278;52.156;21.048;2023-04-24T07:00:35;20.10;;;9.38;;
18304;SDS011;9278;52.156;21.048;2023-04-24T07:03:04;16.33;;;9.25;;
18304;SDS011;9278;52.156;21.048;2023-04-24T07:05:32;16.38;;;9.80;;
18304;SDS011;9278;52.156;21.048;2023-04-24T07:08:02;18.15;;;9.93;;
18304;SDS011;9278;52.156;21.048;2023-04-24T07:10:31;16.45;;;9.35;;
18304;SDS011;9278;52.156;21.048;2023-04-24T07:13:02;16.23;;;9.05;;
18304;SDS011;9278;52.156;21.048;2023-04-24T07:15:30;16.73;;;9.95;;
18304;SDS011;9278;52.156;21.048;2023-04-24T07:18:00;15.32;;;9.10;;
18304;SDS011;9278;52.156;21.048;2023-04-24T07:20:31;16.88;;;9.30;;
18304;SDS011;9278;52.156;21.048;2023-04-24T07:22:59;14.93;;;9.35;;
18304;SDS011;9278;52.156;21.048;2023-04-24T07:25:28;17.13;;;9.35;;
18304;SDS011;9278;52.156;21.048;2023-04-24T07:27:57;20.98;;;9.10;;
18304;SDS011;9278;52.156;21.048;2023-04-24T07:30:26;17.13;;;9.30;;
18304;SDS011;9278;52.156;21.048;2023-04-24T07:32:55;17.27;;;8.63;;
18304;SDS011;9278;52.156;21.048;2023-04-24T07:35:25;18.23;;;9.15;;
18304;SDS011;9278;52.156;21.048;2023-04-24T07:37:54;17.40;;;8.98;;
18304;SDS011;9278;52.156;21.048;2023-04-24T07:40:22;21.30;;;9.00;;
18304;SDS011;9278;52.156;21.048;2023-04-24T07:42:51;13.95;;;8.50;;
18304;SDS011;9278;52.156;21.048;2023-04-24T07:45:19;17.73;;;8.40;;
18304;SDS011;9278;52.156;21.048;2023-04-24T07:47:47;17.58;;;8.63;;
18304;SDS011;9278;52.156;21.048;2023-04-24T07:50:15;13.20;;;8.20;;
18304;SDS011;9278;52.156;21.048;2023-04-24T07:52:45;18.45;;;8.50;;
18304;SDS011;9278;52.156;21.048;2023-04-24T07:55:14;18.63;;;8.40;;
18304;SDS011;9278;52.156;21.048;2023-04-24T07:57:42;15.32;;;8.27;;
18304;SDS011;9278;52.156;21.048;2023-04-24T08:00:11;11.68;;;7.85;;
18304;SDS011;9278;52.156;21.048;2023-04-24T08:02:40;15.32;;;8.30;;
18304;SDS011;9278;52.156;21.048;2023-04-24T08:05:08;18.05;;;8.32;;
18304;SDS011;9278;52.156;21.048;2023-04-24T08:07:37;16.70;;;8.75;;
18304;SDS011;9278;52.156;21.048;2023-04-24T08:10:09;20.85;;;8.52;;
18304;SDS011;9278;52.156;21.048;2023-04-24T08:12:38;17.92;;;8.63;;
18304;SDS011;9278;52.156;21.048;2023-04-24T08:15:07;15.75;;;8.27;;
18304;SDS011;9278;52.156;21.048;2023-04-24T08:17:35;16.00;;;8.52;;
18304;SDS011;9278;52.156;21.048;2023-04-24T08:20:04;13.90;;;8.30;;
18304;SDS011;9278;52.156;21.048;2023-04-24T08:22:36;16.00;;;8.35;;
18304;SDS011;9278;52.156;21.048;2023-04-24T08:25:05;14.77;;;7.57;;
18304;SDS011;9278;52.156;21.048;2023-04-24T08:27:35;22.15;;;7.80;;
18304;SDS011;9278;52.156;21.048;2023-04-24T08:30:05;14.50;;;8.20;;
18304;SDS011;9278;52.156;21.048;2023-04-24T08:32:34;11.88;;;7.57;;
18304;SDS011;9278;52.156;21.048;2023-04-24T08:35:03;14.00;;;7.40;;
18304;SDS011;9278;52.156;21.048;2023-04-24T08:37:32;16.65;;;7.43;;
18304;SDS011;9278;52.156;21.048;2023-04-24T08:40:00;16.50;;;7.53;;
18304;SDS011;9278;52.156;21.048;2023-04-24T08:42:29;14.00;;;7.65;;
18304;SDS011;9278;52.156;21.048;2023-04-24T08:45:01;14.00;;;7.53;;
18304;SDS011;9278;52.156;21.048;2023-04-24T08:47:29;20.48;;;7.22;;
18304;SDS011;9278;52.156;21.048;2023-04-24T08:49:58;13.85;;;7.53;;
18304;SDS011;9278;52.156;21.048;2023-04-24T08:52:29;13.23;;;6.97;;
18304;SDS011;9278;52.156;21.048;2023-04-24T08:54:58;16.85;;;7.60;;
18304;SDS011;9278;52.156;21.048;2023-04-24T08:57:27;12.15;;;7.18;;
18304;SDS011;9278;52.156;21.048;2023-04-24T08:59:57;15.35;;;7.85;;
18304;SDS011;9278;52.156;21.048;2023-04-24T09:02:27;17.90;;;7.82;;
18304;SDS011;9278;52.156;21.048;2023-04-24T09:04:57;14.23;;;7.22;;
18304;SDS011;9278;52.156;21.048;2023-04-24T09:07:25;11.35;;;7.32;;
18304;SDS011;9278;52.156;21.048;2023-04-24T09:09:57;19.90;;;7.32;;
18304;SDS011;9278;52.156;21.048;2023-04-24T09:12:27;15.05;;;7.45;;
18304;SDS011;9278;52.156;21.048;2023-04-24T09:14:55;12.15;;;6.85;;
18304;SDS011;9278;52.156;21.048;2023-04-24T09:17:24;13.30;;;7.10;;
18304;SDS011;9278;52.156;21.048;2023-04-24T09:19:56;15.63;;;7.13;;
18304;SDS011;9278;52.156;21.048;2023-04-24T09:22:24;12.68;;;6.30;;
18304;SDS011;9278;52.156;21.048;2023-04-24T09:24:59;15.50;;;6.03;;
18304;SDS011;9278;52.156;21.048;2023-04-24T09:27:30;13.20;;;7.43;;
18304;SDS011;9278;52.156;21.048;2023-04-24T09:29:59;12.48;;;5.85;;
18304;SDS011;9278;52.156;21.048;2023-04-24T09:32:28;10.15;;;5.65;;
18304;SDS011;9278;52.156;21.048;2023-04-24T09:35:09;9.57;;;6.15;;
18304;SDS011;9278;52.156;21.048;2023-04-24T09:37:39;11.85;;;6.50;;
18304;SDS011;9278;52.156;21.048;2023-04-24T09:40:13;12.40;;;6.70;;
18304;SDS011;9278;52.156;21.048;2023-04-24T09:42:43;15.02;;;7.05;;
18304;SDS011;9278;52.156;21.048;2023-04-24T09:45:12;12.05;;;6.75;;
18304;SDS011;9278;52.156;21.048;2023-04-24T09:47:41;10.77;;;6.68;;
18304;SDS011;9278;52.156;21.048;2023-04-24T09:50:15;19.27;;;6.82;;
18304;SDS011;9278;52.156;21.048;2023-04-24T09:52:56;9.40;;;6.65;;
18304;SDS011;9278;52.156;21.048;2023-04-24T09:55:25;11.18;;;6.47;;
18304;SDS011;9278;52.156;21.048;2023-04-24T09:57:54;14.82;;;7.10;;
18304;SDS011;9278;52.156;21.048;2023-04-24T10:00:25;14.23;;;7.40;;
18304;SDS011;9278;52.156;21.048;2023-04-24T10:02:58;18.77;;;6.90;;
18304;SDS011;9278;52.156;21.048;2023-04-24T10:05:30;15.23;;;7.18;;
18304;SDS011;9278;52.156;21.048;2023-04-24T10:08:02;12.38;;;6.95;;
18304;SDS011;9278;52.156;21.048;2023-04-24T10:10:32;12.85;;;7.10;;
18304;SDS011;9278;52.156;21.048;2023-04-24T10:13:01;14.68;;;6.93;;
18304;SDS011;9278;52.156;21.048;2023-04-24T10:15:31;12.98;;;6.85;;
18304;SDS011;9278;52.156;21.048;2023-04-24T10:17:59;10.38;;;6.45;;
18304;SDS011;9278;52.156;21.048;2023-04-24T10:20:29;14.10;;;6.63;;
18304;SDS011;9278;52.156;21.048;2023-04-24T10:22:58;14.10;;;6.93;;
18304;SDS011;9278;52.156;21.048;2023-04-24T10:25:27;10.65;;;6.43;;
18304;SDS011;9278;52.156;21.048;2023-04-24T10:27:58;8.63;;;6.18;;
18304;SDS011;9278;52.156;21.048;2023-04-24T10:30:27;10.73;;;6.50;;
18304;SDS011;9278;52.156;21.048;2023-04-24T10:32:59;11.63;;;6.03;;
18304;SDS011;9278;52.156;21.048;2023-04-24T10:35:27;13.50;;;6.55;;
18304;SDS011;9278;52.156;21.048;2023-04-24T10:38:01;12.40;;;6.75;;
18304;SDS011;9278;52.156;21.048;2023-04-24T10:40:33;12.85;;;7.07;;
18304;SDS011;9278;52.156;21.048;2023-04-24T10:43:02;18.80;;;6.75;;
18304;SDS011;9278;52.156;21.048;2023-04-24T10:45:35;12.55;;;6.80;;
18304;SDS011;9278;52.156;21.048;2023-04-24T10:48:05;13.80;;;6.70;;
18304;SDS011;9278;52.156;21.048;2023-04-24T10:50:46;9.13;;;6.55;;
18304;SDS011;9278;52.156;21.048;2023-04-24T10:53:16;14.98;;;6.60;;
18304;SDS011;9278;52.156;21.048;2023-04-24T10:55:46;9.95;;;6.15;;
18304;SDS011;9278;52.156;21.048;2023-04-24T10:58:15;12.82;;;6.05;;
18304;SDS011;9278;52.156;21.048;2023-04-24T11:00:44;15.23;;;5.72;;
18304;SDS011;9278;52.156;21.048;2023-04-24T11:03:24;11.82;;;6.28;;
18304;SDS011;9278;52.156;21.048;2023-04-24T11:05:57;10.50;;;5.82;;
18304;SDS011;9278;52.156;21.048;2023-04-24T11:08:31;11.52;;;5.78;;
18304;SDS011;9278;52.156;21.048;2023-04-24T11:11:08;9.32;;;5.80;;
18304;SDS011;9278;52.156;21.048;2023-04-24T11:16:35;14.98;;;6.00;;
18304;SDS011;9278;52.156;21.048;2023-04-24T11:19:07;11.27;;;5.65;;
18304;SDS011;9278;52.156;21.048;2023-04-24T11:21:41;11.05;;;5.35;;
18304;SDS011;9278;52.156;21.048;2023-04-24T11:24:30;17.60;;;5.85;;
18304;SDS011;9278;52.156;21.048;2023-04-24T11:27:01;9.15;;;4.80;;
18304;SDS011;9278;52.156;21.048;2023-04-24T11:29:44;9.05;;;5.63;;
18304;SDS011;9278;52.156;21.048;2023-04-24T11:32:14;10.70;;;5.40;;
18304;SDS011;9278;52.156;21.048;2023-04-24T11:34:45;13.63;;;8.05;;
18304;SDS011;9278;52.156;21.048;2023-04-24T11:37:18;11.60;;;5.80;;
18304;SDS011;9278;52.156;21.048;2023-04-24T11:39:47;8.15;;;4.95;;
18304;SDS011;9278;52.156;21.048;2023-04-24T11:42:18;9.90;;;5.30;;
18304;SDS011;9278;52.156;21.048;2023-04-24T11:44:49;9.18;;;5.15;;
18304;SDS011;9278;52.156;21.048;2023-04-24T11:47:19;11.00;;;5.53;;
18304;SDS011;9278;52.156;21.048;2023-04-24T11:49:49;8.73;;;5.45;;
18304;SDS011;9278;52.156;21.048;2023-04-24T11:52:20;8.50;;;5.30;;
18304;SDS011;9278;52.156;21.048;2023-04-24T11:54:49;11.25;;;5.97;;
18304;SDS011;9278;52.156;21.048;2023-04-24T11:57:18;11.30;;;5.88;;
18304;SDS011;9278;52.156;21.048;2023-04-24T11:59:48;15.15;;;5.72;;
18304;SDS011;9278;52.156;21.048;2023-04-24T12:02:20;8.68;;;5.53;;
18304;SDS011;9278;52.156;21.048;2023-04-24T12:04:52;10.68;;;5.78;;
18304;SDS011;9278;52.156;21.048;2023-04-24T12:07:24;13.00;;;6.28;;
18304;SDS011;9278;52.156;21.048;2023-04-24T12:09:56;8.88;;;5.70;;
18304;SDS011;9278;52.156;21.048;2023-04-24T12:12:26;10.10;;;5.93;;
18304;SDS011;9278;52.156;21.048;2023-04-24T12:14:56;12.48;;;5.90;;
18304;SDS011;9278;52.156;21.048;2023-04-24T12:17:26;11.52;;;6.13;;
18304;SDS011;9278;52.156;21.048;2023-04-24T12:19:58;10.45;;;5.53;;
18304;SDS011;9278;52.156;21.048;2023-04-24T12:22:38;9.15;;;5.65;;
18304;SDS011;9278;52.156;21.048;2023-04-24T12:25:12;8.57;;;5.90;;
18304;SDS011;9278;52.156;21.048;2023-04-24T12:27:41;10.55;;;6.25;;
18304;SDS011;9278;52.156;21.048;2023-04-24T12:30:12;9.75;;;5.88;;
18304;SDS011;9278;52.156;21.048;2023-04-24T12:32:41;9.48;;;5.30;;
18304;SDS011;9278;52.156;21.048;2023-04-24T12:35:10;9.02;;;5.18;;
18304;SDS011;9278;52.156;21.048;2023-04-24T12:37:41;10.23;;;5.28;;
18304;SDS011;9278;52.156;21.048;2023-04-24T12:40:13;11.02;;;4.25;;
18304;SDS011;9278;52.156;21.048;2023-04-24T12:42:42;20.50;;;4.55;;
18304;SDS011;9278;52.156;21.048;2023-04-24T12:45:11;26.98;;;4.30;;
18304;SDS011;9278;52.156;21.048;2023-04-24T12:47:41;24.77;;;4.20;;
18304;SDS011;9278;52.156;21.048;2023-04-24T12:50:11;20.50;;;4.03;;
18304;SDS011;9278;52.156;21.048;2023-04-24T12:52:42;28.88;;;3.97;;
18304;SDS011;9278;52.156;21.048;2023-04-24T12:55:10;20.05;;;4.40;;
18304;SDS011;9278;52.156;21.048;2023-04-24T12:57:39;13.27;;;3.85;;
18304;SDS011;9278;52.156;21.048;2023-04-24T13:00:08;20.92;;;4.18;;
18304;SDS011;9278;52.156;21.048;2023-04-24T13:02:37;13.85;;;3.50;;
18304;SDS011;9278;52.156;21.048;2023-04-24T13:05:06;15.73;;;4.25;;
18304;SDS011;9278;52.156;21.048;2023-04-24T13:07:35;13.05;;;4.10;;
18304;SDS011;9278;52.156;21.048;2023-04-24T13:10:05;23.90;;;4.13;;
18304;SDS011;9278;52.156;21.048;2023-04-24T13:12:34;10.55;;;4.03;;
18304;SDS011;9278;52.156;21.048;2023-04-24T13:15:03;15.68;;;4.15;;
18304;SDS011;9278;52.156;21.048;2023-04-24T13:17:32;8.25;;;3.75;;
18304;SDS011;9278;52.156;21.048;2023-04-24T13:20:00;9.95;;;3.63;;
18304;SDS011;9278;52.156;21.048;2023-04-24T13:22:29;10.50;;;3.92;;
18304;SDS011;9278;52.156;21.048;2023-04-24T13:24:57;7.63;;;3.60;;
18304;SDS011;9278;52.156;21.048;2023-04-24T13:27:27;10.02;;;3.55;;
18304;SDS011;9278;52.156;21.048;2023-04-24T13:29:55;6.28;;;3.50;;
18304;SDS011;9278;52.156;21.048;2023-04-24T13:32:23;10.73;;;3.92;;
18304;SDS011;9278;52.156;21.048;2023-04-24T13:34:53;12.48;;;3.90;;
18304;SDS011;9278;52.156;21.048;2023-04-24T13:37:21;4.57;;;3.40;;
18304;SDS011;9278;52.156;21.048;2023-04-24T13:39:49;8.55;;;3.65;;
18304;SDS011;9278;52.156;21.048;2023-04-24T13:42:18;6.10;;;3.63;;
18304;SDS011;9278;52.156;21.048;2023-04-24T13:44:48;7.00;;;3.78;;
18304;SDS011;9278;52.156;21.048;2023-04-24T13:47:17;8.02;;;3.60;;
18304;SDS011;9278;52.156;21.048;2023-04-24T13:49:45;4.80;;;3.47;;
18304;SDS011;9278;52.156;21.048;2023-04-24T13:52:14;5.05;;;3.17;;
18304;SDS011;9278;52.156;21.048;2023-04-24T13:54:43;5.07;;;3.15;;
18304;SDS011;9278;52.156;21.048;2023-04-24T13:57:11;5.32;;;3.58;;
18304;SDS011;9278;52.156;21.048;2023-04-24T13:59:41;6.95;;;3.50;;
18304;SDS011;9278;52.156;21.048;2023-04-24T14:02:11;6.03;;;3.38;;
18304;SDS011;9278;52.156;21.048;2023-04-24T14:04:39;4.45;;;3.67;;
18304;SDS011;9278;52.156;21.048;2023-04-24T14:07:08;9.35;;;3.85;;
18304;SDS011;9278;52.156;21.048;2023-04-24T14:09:36;7.25;;;3.90;;
18304;SDS011;9278;52.156;21.048;2023-04-24T14:12:04;5.75;;;3.33;;
18304;SDS011;9278;52.156;21.048;2023-04-24T14:14:33;5.45;;;3.80;;
18304;SDS011;9278;52.156;21.048;2023-04-24T14:17:01;6.57;;;3.75;;
18304;SDS011;9278;52.156;21.048;2023-04-24T14:19:31;4.47;;;3.85;;
18304;SDS011;9278;52.156;21.048;2023-04-24T14:22:00;9.82;;;3.60;;
18304;SDS011;9278;52.156;21.048;2023-04-24T14:24:28;10.20;;;3.70;;
18304;SDS011;9278;52.156;21.048;2023-04-24T14:26:57;7.10;;;3.40;;
18304;SDS011;9278;52.156;21.048;2023-04-24T14:29:25;8.38;;;3.83;;
18304;SDS011;9278;52.156;21.048;2023-04-24T14:31:53;9.90;;;3.63;;
18304;SDS011;9278;52.156;21.048;2023-04-24T14:34:22;10.70;;;3.65;;
18304;SDS011;9278;52.156;21.048;2023-04-24T14:36:52;5.18;;;3.67;;
18304;SDS011;9278;52.156;21.048;2023-04-24T14:39:20;5.22;;;3.70;;
18304;SDS011;9278;52.156;21.048;2023-04-24T14:41:48;7.60;;;3.60;;
18304;SDS011;9278;52.156;21.048;2023-04-24T14:44:17;9.38;;;3.97;;
18304;SDS011;9278;52.156;21.048;2023-04-24T14:46:45;6.55;;;3.65;;
18304;SDS011;9278;52.156;21.048;2023-04-24T14:49:13;10.20;;;3.85;;
18304;SDS011;9278;52.156;21.048;2023-04-24T14:51:42;6.20;;;3.67;;
18304;SDS011;9278;52.156;21.048;2023-04-24T14:54:12;6.00;;;3.78;;